sensor_id;sensor_type;location;lat;lon;timestamp;P1;durP1;ratioP1;P2;durP2;ratioP2
32242;SDS011;18731;42.830;24.390;2023-06-10T03:00:30;6.43;;;4.50;;
32242;SDS011;18731;42.830;24.390;2023-06-10T03:02:56;5.85;;;4.80;;
32242;SDS011;18731;42.830;24.390;2023-06-10T03:07:57;8.60;;;4.85;;
32242;SDS011;18731;42.830;24.390;2023-06-10T03:10:24;8.50;;;5.43;;
32242;SDS011;18731;42.830;24.390;2023-06-10T03:12:50;8.50;;;5.30;;
32242;SDS011;18731;42.830;24.390;2023-06-10T03:15:15;9.20;;;4.72;;
32242;SDS011;18731;42.830;24.390;2023-06-10T03:17:41;8.52;;;4.97;;
32242;SDS011;18731;42.830;24.390;2023-06-10T03:20:07;6.72;;;4.65;;
32242;SDS011;18731;42.830;24.390;2023-06-10T03:22:35;7.97;;;5.38;;
32242;SDS011;18731;42.830;24.390;2023-06-10T03:25:01;8.48;;;4.80;;
32242;SDS011;18731;42.830;24.390;2023-06-10T03:27:27;6.47;;;5.00;;
32242;SDS011;18731;42.830;24.390;2023-06-10T03:29:54;10.77;;;5.03;;
32242;SDS011;18731;42.830;24.390;2023-06-10T03:32:20;9.75;;;5.13;;
32242;SDS011;18731;42.830;24.390;2023-06-10T03:34:46;7.20;;;4.95;;
32242;SDS011;18731;42.830;24.390;2023-06-10T03:37:13;7.00;;;4.68;;
32242;SDS011;18731;42.830;24.390;2023-06-10T03:39:39;6.18;;;4.72;;
32242;SDS011;18731;42.830;24.390;2023-06-10T03:42:06;6.82;;;4.90;;
32242;SDS011;18731;42.830;24.390;2023-06-10T03:44:31;11.20;;;5.05;;
32242;SDS011;18731;42.830;24.390;2023-06-10T03:46:57;7.97;;;5.15;;
32242;SDS011;18731;42.830;24.390;2023-06-10T03:49:25;8.27;;;5.20;;
32242;SDS011;18731;42.830;24.390;2023-06-10T03:51:52;7.68;;;4.97;;
32242;SDS011;18731;42.830;24.390;2023-06-10T03:54:19;7.10;;;4.80;;
32242;SDS011;18731;42.830;24.390;2023-06-10T03:56:44;7.65;;;5.05;;
32242;SDS011;18731;42.830;24.390;2023-06-10T03:59:10;7.70;;;4.85;;
32242;SDS011;18731;42.830;24.390;2023-06-10T04:01:36;8.57;;;5.20;;
32242;SDS011;18731;42.830;24.390;2023-06-10T04:04:02;16.63;;;10.20;;
32242;SDS011;18731;42.830;24.390;2023-06-10T04:06:31;11.10;;;8.05;;
32242;SDS011;18731;42.830;24.390;2023-06-10T04:08:57;8.45;;;5.10;;
32242;SDS011;18731;42.830;24.390;2023-06-10T04:11:24;6.20;;;5.00;;
32242;SDS011;18731;42.830;24.390;2023-06-10T04:13:50;9.35;;;5.05;;
32242;SDS011;18731;42.830;24.390;2023-06-10T04:16:16;7.35;;;5.63;;
32242;SDS011;18731;42.830;24.390;2023-06-10T04:18:42;6.45;;;5.20;;
32242;SDS011;18731;42.830;24.390;2023-06-10T04:21:07;7.28;;;5.65;;
32242;SDS011;18731;42.830;24.390;2023-06-10T04:23:36;8.52;;;6.20;;
32242;SDS011;18731;42.830;24.390;2023-06-10T04:26:02;9.40;;;5.47;;
32242;SDS011;18731;42.830;24.390;2023-06-10T04:28:28;22.50;;;18.38;;
32242;SDS011;18731;42.830;24.390;2023-06-10T04:30:54;21.08;;;13.68;;
32242;SDS011;18731;42.830;24.390;2023-06-10T04:33:20;24.98;;;21.85;;
32242;SDS011;18731;42.830;24.390;2023-06-10T04:35:46;16.95;;;11.88;;
32242;SDS011;18731;42.830;24.390;2023-06-10T04:38:13;17.25;;;10.45;;
32242;SDS011;18731;42.830;24.390;2023-06-10T04:40:39;15.05;;;8.38;;
32242;SDS011;18731;42.830;24.390;2023-06-10T04:43:08;11.82;;;7.35;;
32242;SDS011;18731;42.830;24.390;2023-06-10T04:45:34;11.43;;;5.85;;
32242;SDS011;18731;42.830;24.390;2023-06-10T04:48:00;10.85;;;6.60;;
32242;SDS011;18731;42.830;24.390;2023-06-10T04:50:26;8.25;;;5.28;;
32242;SDS011;18731;42.830;24.390;2023-06-10T04:52:52;7.28;;;5.00;;
32242;SDS011;18731;42.830;24.390;2023-06-10T04:55:17;9.23;;;5.60;;
32242;SDS011;18731;42.830;24.390;2023-06-10T04:57:43;13.02;;;4.90;;
32242;SDS011;18731;42.830;24.390;2023-06-10T05:00:09;9.48;;;5.30;;
32242;SDS011;18731;42.830;24.390;2023-06-10T05:02:35;10.77;;;5.97;;
32242;SDS011;18731;42.830;24.390;2023-06-10T05:05:01;8.05;;;5.63;;
32242;SDS011;18731;42.830;24.390;2023-06-10T05:07:26;10.32;;;6.00;;
32242;SDS011;18731;42.830;24.390;2023-06-10T05:09:52;8.30;;;5.85;;
32242;SDS011;18731;42.830;24.390;2023-06-10T05:12:18;11.27;;;6.13;;
32242;SDS011;18731;42.830;24.390;2023-06-10T05:14:43;10.02;;;6.50;;
32242;SDS011;18731;42.830;24.390;2023-06-10T05:17:09;8.20;;;6.35;;
32242;SDS011;18731;42.830;24.390;2023-06-10T05:19:35;9.15;;;5.70;;
32242;SDS011;18731;42.830;24.390;2023-06-10T05:22:02;12.10;;;5.85;;
32242;SDS011;18731;42.830;24.390;2023-06-10T05:24:28;8.73;;;4.75;;
32242;SDS011;18731;42.830;24.390;2023-06-10T05:26:54;12.15;;;6.75;;
32242;SDS011;18731;42.830;24.390;2023-06-10T05:29:20;11.18;;;6.38;;
32242;SDS011;18731;42.830;24.390;2023-06-10T05:31:45;9.70;;;6.10;;
32242;SDS011;18731;42.830;24.390;2023-06-10T05:34:13;9.10;;;5.90;;
32242;SDS011;18731;42.830;24.390;2023-06-10T05:36:38;9.35;;;5.18;;
32242;SDS011;18731;42.830;24.390;2023-06-10T05:39:04;9.73;;;4.65;;
32242;SDS011;18731;42.830;24.390;2023-06-10T05:41:30;6.18;;;4.68;;
32242;SDS011;18731;42.830;24.390;2023-06-10T05:43:56;13.10;;;5.20;;
32242;SDS011;18731;42.830;24.390;2023-06-10T05:46:21;12.52;;;6.10;;
32242;SDS011;18731;42.830;24.390;2023-06-10T05:48:48;11.13;;;7.07;;
32242;SDS011;18731;42.830;24.390;2023-06-10T05:51:13;7.90;;;5.68;;
32242;SDS011;18731;42.830;24.390;2023-06-10T05:53:39;10.80;;;5.72;;
32242;SDS011;18731;42.830;24.390;2023-06-10T05:56:05;8.93;;;5.55;;
32242;SDS011;18731;42.830;24.390;2023-06-10T05:58:31;13.10;;;5.82;;
32242;SDS011;18731;42.830;24.390;2023-06-10T06:00:57;7.97;;;5.75;;
32242;SDS011;18731;42.830;24.390;2023-06-10T06:03:23;8.60;;;5.85;;
32242;SDS011;18731;42.830;24.390;2023-06-10T06:05:49;10.10;;;5.35;;
32242;SDS011;18731;42.830;24.390;2023-06-10T06:08:15;10.02;;;5.97;;
32242;SDS011;18731;42.830;24.390;2023-06-10T06:10:44;16.65;;;6.13;;
32242;SDS011;18731;42.830;24.390;2023-06-10T06:13:10;11.80;;;5.47;;
32242;SDS011;18731;42.830;24.390;2023-06-10T06:15:36;11.43;;;6.05;;
32242;SDS011;18731;42.830;24.390;2023-06-10T06:18:01;16.88;;;6.45;;
32242;SDS011;18731;42.830;24.390;2023-06-10T06:20:27;9.43;;;5.80;;
32242;SDS011;18731;42.830;24.390;2023-06-10T06:22:52;10.02;;;6.55;;
32242;SDS011;18731;42.830;24.390;2023-06-10T06:25:18;14.88;;;7.68;;
32242;SDS011;18731;42.830;24.390;2023-06-10T06:27:43;12.50;;;8.00;;
32242;SDS011;18731;42.830;24.390;2023-06-10T06:30:09;11.10;;;7.63;;
32242;SDS011;18731;42.830;24.390;2023-06-10T06:32:35;11.43;;;7.30;;
32242;SDS011;18731;42.830;24.390;2023-06-10T06:35:01;13.77;;;7.85;;
32242;SDS011;18731;42.830;24.390;2023-06-10T06:37:26;14.23;;;7.80;;
32242;SDS011;18731;42.830;24.390;2023-06-10T06:39:52;11.80;;;7.38;;
32242;SDS011;18731;42.830;24.390;2023-06-10T06:42:18;13.13;;;7.63;;
32242;SDS011;18731;42.830;24.390;2023-06-10T06:44:45;12.95;;;7.72;;
32242;SDS011;18731;42.830;24.390;2023-06-10T06:47:12;19.98;;;9.55;;
32242;SDS011;18731;42.830;24.390;2023-06-10T06:49:38;24.75;;;13.45;;
32242;SDS011;18731;42.830;24.390;2023-06-10T06:52:04;30.02;;;14.45;;
32242;SDS011;18731;42.830;24.390;2023-06-10T06:54:30;19.50;;;11.20;;
32242;SDS011;18731;42.830;24.390;2023-06-10T06:56:56;16.98;;;9.20;;
32242;SDS011;18731;42.830;24.390;2023-06-10T06:59:21;15.88;;;7.60;;
32242;SDS011;18731;42.830;24.390;2023-06-10T07:01:47;14.18;;;7.38;;
32242;SDS011;18731;42.830;24.390;2023-06-10T07:04:14;10.82;;;6.82;;
32242;SDS011;18731;42.830;24.390;2023-06-10T07:06:40;18.20;;;8.88;;
32242;SDS011;18731;42.830;24.390;2023-06-10T07:09:07;11.65;;;7.50;;
32242;SDS011;18731;42.830;24.390;2023-06-10T07:11:36;9.57;;;5.63;;
32242;SDS011;18731;42.830;24.390;2023-06-10T07:14:02;11.10;;;6.40;;
32242;SDS011;18731;42.830;24.390;2023-06-10T07:16:28;11.85;;;7.10;;
32242;SDS011;18731;42.830;24.390;2023-06-10T07:18:54;10.70;;;7.05;;
32242;SDS011;18731;42.830;24.390;2023-06-10T07:21:20;12.13;;;7.47;;
32242;SDS011;18731;42.830;24.390;2023-06-10T07:23:45;17.50;;;7.20;;
32242;SDS011;18731;42.830;24.390;2023-06-10T07:26:11;8.65;;;6.40;;
32242;SDS011;18731;42.830;24.390;2023-06-10T07:28:41;8.70;;;5.32;;
32242;SDS011;18731;42.830;24.390;2023-06-10T07:31:08;13.43;;;5.85;;
32242;SDS011;18731;42.830;24.390;2023-06-10T07:33:34;15.52;;;4.90;;
32242;SDS011;18731;42.830;24.390;2023-06-10T07:36:00;10.02;;;4.88;;
32242;SDS011;18731;42.830;24.390;2023-06-10T07:38:26;10.55;;;5.32;;
32242;SDS011;18731;42.830;24.390;2023-06-10T07:40:52;9.45;;;4.90;;
32242;SDS011;18731;42.830;24.390;2023-06-10T07:43:18;6.97;;;4.78;;
32242;SDS011;18731;42.830;24.390;2023-06-10T07:45:44;8.85;;;4.82;;
32242;SDS011;18731;42.830;24.390;2023-06-10T07:48:09;9.27;;;5.85;;
32242;SDS011;18731;42.830;24.390;2023-06-10T07:50:35;8.25;;;5.32;;
32242;SDS011;18731;42.830;24.390;2023-06-10T07:55:34;20.10;;;8.43;;
32242;SDS011;18731;42.830;24.390;2023-06-10T07:58:00;8.65;;;4.40;;
32242;SDS011;18731;42.830;24.390;2023-06-10T08:00:26;6.55;;;4.45;;
32242;SDS011;18731;42.830;24.390;2023-06-10T08:02:51;7.88;;;4.88;;
32242;SDS011;18731;42.830;24.390;2023-06-10T08:05:17;14.57;;;6.30;;
32242;SDS011;18731;42.830;24.390;2023-06-10T08:07:44;13.95;;;5.18;;
32242;SDS011;18731;42.830;24.390;2023-06-10T08:12:45;5.78;;;4.60;;
32242;SDS011;18731;42.830;24.390;2023-06-10T08:15:11;5.15;;;4.20;;
32242;SDS011;18731;42.830;24.390;2023-06-10T08:17:37;7.80;;;4.43;;
32242;SDS011;18731;42.830;24.390;2023-06-10T08:33:00;5.97;;;4.47;;
32242;SDS011;18731;42.830;24.390;2023-06-10T08:35:25;7.15;;;4.65;;
32242;SDS011;18731;42.830;24.390;2023-06-10T08:37:51;5.55;;;4.00;;
32242;SDS011;18731;42.830;24.390;2023-06-10T08:40:17;9.00;;;4.30;;
32242;SDS011;18731;42.830;24.390;2023-06-10T08:42:45;6.35;;;4.28;;
32242;SDS011;18731;42.830;24.390;2023-06-10T08:45:29;4.57;;;3.83;;
32242;SDS011;18731;42.830;24.390;2023-06-10T08:48:03;5.68;;;3.75;;
32242;SDS011;18731;42.830;24.390;2023-06-10T08:50:34;7.72;;;3.75;;
32242;SDS011;18731;42.830;24.390;2023-06-10T08:53:04;5.22;;;3.65;;
32242;SDS011;18731;42.830;24.390;2023-06-10T08:55:32;5.45;;;3.85;;
32242;SDS011;18731;42.830;24.390;2023-06-10T08:58:01;7.97;;;3.60;;
32242;SDS011;18731;42.830;24.390;2023-06-10T09:00:28;7.00;;;3.88;;
32242;SDS011;18731;42.830;24.390;2023-06-10T09:02:55;8.07;;;4.18;;
32242;SDS011;18731;42.830;24.390;2023-06-10T09:05:24;4.28;;;3.33;;
32242;SDS011;18731;42.830;24.390;2023-06-10T09:07:52;7.13;;;3.47;;
32242;SDS011;18731;42.830;24.390;2023-06-10T09:10:19;5.90;;;3.40;;
32242;SDS011;18731;42.830;24.390;2023-06-10T09:12:45;6.20;;;3.88;;
32242;SDS011;18731;42.830;24.390;2023-06-10T09:15:10;6.90;;;3.33;;
32242;SDS011;18731;42.830;24.390;2023-06-10T09:17:40;4.88;;;3.40;;
32242;SDS011;18731;42.830;24.390;2023-06-10T09:20:07;6.78;;;3.38;;
32242;SDS011;18731;42.830;24.390;2023-06-10T09:22:37;4.47;;;3.38;;
32242;SDS011;18731;42.830;24.390;2023-06-10T09:27:30;4.13;;;3.10;;
32242;SDS011;18731;42.830;24.390;2023-06-10T09:29:57;5.82;;;3.40;;
32242;SDS011;18731;42.830;24.390;2023-06-10T09:32:24;5.90;;;3.53;;
32242;SDS011;18731;42.830;24.390;2023-06-10T09:34:50;6.07;;;3.20;;
32242;SDS011;18731;42.830;24.390;2023-06-10T09:37:25;6.18;;;3.65;;
32242;SDS011;18731;42.830;24.390;2023-06-10T09:40:04;6.85;;;3.42;;
32242;SDS011;18731;42.830;24.390;2023-06-10T09:42:35;8.13;;;3.40;;
32242;SDS011;18731;42.830;24.390;2023-06-10T09:45:02;5.43;;;3.45;;
32242;SDS011;18731;42.830;24.390;2023-06-10T09:47:29;4.55;;;3.60;;
32242;SDS011;18731;42.830;24.390;2023-06-10T09:49:55;5.32;;;3.58;;
32242;SDS011;18731;42.830;24.390;2023-06-10T09:52:24;6.68;;;3.28;;
32242;SDS011;18731;42.830;24.390;2023-06-10T09:54:51;4.90;;;2.97;;
32242;SDS011;18731;42.830;24.390;2023-06-10T09:57:19;4.45;;;3.00;;
32242;SDS011;18731;42.830;24.390;2023-06-10T09:59:46;4.25;;;3.13;;
32242;SDS011;18731;42.830;24.390;2023-06-10T10:02:15;4.75;;;3.00;;
32242;SDS011;18731;42.830;24.390;2023-06-10T10:04:44;8.27;;;3.20;;
32242;SDS011;18731;42.830;24.390;2023-06-10T10:07:11;4.65;;;3.00;;
32242;SDS011;18731;42.830;24.390;2023-06-10T10:09:37;4.57;;;2.90;;
32242;SDS011;18731;42.830;24.390;2023-06-10T10:12:07;3.50;;;2.80;;
32242;SDS011;18731;42.830;24.390;2023-06-10T10:14:39;3.45;;;2.75;;
32242;SDS011;18731;42.830;24.390;2023-06-10T10:17:11;3.70;;;3.00;;
32242;SDS011;18731;42.830;24.390;2023-06-10T10:19:50;5.07;;;2.78;;
32242;SDS011;18731;42.830;24.390;2023-06-10T11:05:06;5.10;;;3.20;;
32242;SDS011;18731;42.830;24.390;2023-06-10T11:07:33;4.18;;;3.30;;
32242;SDS011;18731;42.830;24.390;2023-06-10T11:10:05;9.90;;;3.45;;
32242;SDS011;18731;42.830;24.390;2023-06-10T11:15:10;6.63;;;3.10;;
32242;SDS011;18731;42.830;24.390;2023-06-10T11:18:11;5.07;;;3.20;;
32242;SDS011;18731;42.830;24.390;2023-06-10T11:26:30;8.00;;;3.90;;
32242;SDS011;18731;42.830;24.390;2023-06-10T11:31:25;5.20;;;3.45;;
32242;SDS011;18731;42.830;24.390;2023-06-10T11:33:53;10.80;;;3.25;;
32242;SDS011;18731;42.830;24.390;2023-06-10T11:36:20;10.00;;;3.53;;
32242;SDS011;18731;42.830;24.390;2023-06-10T11:38:46;9.50;;;3.42;;
32242;SDS011;18731;42.830;24.390;2023-06-10T11:41:13;6.03;;;3.70;;
32242;SDS011;18731;42.830;24.390;2023-06-10T11:43:43;4.45;;;3.65;;
32242;SDS011;18731;42.830;24.390;2023-06-10T11:46:12;7.43;;;3.40;;
32242;SDS011;18731;42.830;24.390;2023-06-10T11:48:39;6.82;;;3.30;;
32242;SDS011;18731;42.830;24.390;2023-06-10T11:53:39;6.22;;;3.42;;
32242;SDS011;18731;42.830;24.390;2023-06-10T11:56:05;6.28;;;3.67;;
32242;SDS011;18731;42.830;24.390;2023-06-10T11:58:31;5.75;;;3.60;;
32242;SDS011;18731;42.830;24.390;2023-06-10T12:01:03;6.93;;;3.30;;
32242;SDS011;18731;42.830;24.390;2023-06-10T12:03:36;8.88;;;3.63;;
32242;SDS011;18731;42.830;24.390;2023-06-10T12:06:04;7.90;;;3.55;;
32242;SDS011;18731;42.830;24.390;2023-06-10T12:08:32;4.57;;;3.28;;
32242;SDS011;18731;42.830;24.390;2023-06-10T12:10:58;4.68;;;3.25;;
32242;SDS011;18731;42.830;24.390;2023-06-10T12:13:27;10.90;;;3.90;;
32242;SDS011;18731;42.830;24.390;2023-06-10T12:15:54;4.95;;;3.55;;
32242;SDS011;18731;42.830;24.390;2023-06-10T12:18:20;4.90;;;3.45;;
32242;SDS011;18731;42.830;24.390;2023-06-10T12:20:47;8.73;;;3.80;;
32242;SDS011;18731;42.830;24.390;2023-06-10T13:24:48;10.15;;;4.68;;
32242;SDS011;18731;42.830;24.390;2023-06-10T13:27:14;9.98;;;4.95;;
32242;SDS011;18731;42.830;24.390;2023-06-10T13:29:40;8.70;;;4.18;;
32242;SDS011;18731;42.830;24.390;2023-06-10T13:32:06;4.97;;;3.67;;
32242;SDS011;18731;42.830;24.390;2023-06-10T13:34:33;7.07;;;4.50;;
32242;SDS011;18731;42.830;24.390;2023-06-10T13:36:58;12.93;;;4.55;;
32242;SDS011;18731;42.830;24.390;2023-06-10T13:39:24;4.95;;;3.75;;
32242;SDS011;18731;42.830;24.390;2023-06-10T13:41:50;7.72;;;3.55;;
32242;SDS011;18731;42.830;24.390;2023-06-10T13:44:17;5.40;;;3.58;;
32242;SDS011;18731;42.830;24.390;2023-06-10T13:46:46;7.13;;;5.10;;
32242;SDS011;18731;42.830;24.390;2023-06-10T13:49:12;14.40;;;6.90;;
32242;SDS011;18731;42.830;24.390;2023-06-10T13:51:38;11.05;;;6.90;;
32242;SDS011;18731;42.830;24.390;2023-06-10T13:54:04;14.55;;;8.35;;
32242;SDS011;18731;42.830;24.390;2023-06-10T13:56:29;9.98;;;5.07;;
32242;SDS011;18731;42.830;24.390;2023-06-10T13:58:57;7.97;;;4.68;;
32242;SDS011;18731;42.830;24.390;2023-06-10T14:01:22;7.22;;;4.10;;
32242;SDS011;18731;42.830;24.390;2023-06-10T14:03:49;7.47;;;4.22;;
32242;SDS011;18731;42.830;24.390;2023-06-10T14:06:15;8.25;;;4.50;;
32242;SDS011;18731;42.830;24.390;2023-06-10T14:08:44;7.20;;;4.25;;
32242;SDS011;18731;42.830;24.390;2023-06-10T14:11:10;6.03;;;4.50;;
32242;SDS011;18731;42.830;24.390;2023-06-10T14:13:36;7.00;;;5.32;;
32242;SDS011;18731;42.830;24.390;2023-06-10T14:16:04;5.70;;;4.00;;
32242;SDS011;18731;42.830;24.390;2023-06-10T14:18:30;12.27;;;6.13;;
32242;SDS011;18731;42.830;24.390;2023-06-10T14:20:56;7.45;;;5.20;;
32242;SDS011;18731;42.830;24.390;2023-06-10T14:23:21;7.55;;;5.10;;
32242;SDS011;18731;42.830;24.390;2023-06-10T14:25:49;5.68;;;3.97;;
32242;SDS011;18731;42.830;24.390;2023-06-10T14:28:15;11.07;;;4.65;;
32242;SDS011;18731;42.830;24.390;2023-06-10T14:30:41;6.50;;;4.90;;
32242;SDS011;18731;42.830;24.390;2023-06-10T14:33:07;8.20;;;5.05;;
32242;SDS011;18731;42.830;24.390;2023-06-10T14:35:33;9.40;;;4.53;;
32242;SDS011;18731;42.830;24.390;2023-06-10T14:38:05;9.35;;;4.60;;
32242;SDS011;18731;42.830;24.390;2023-06-10T14:40:31;9.50;;;6.22;;
32242;SDS011;18731;42.830;24.390;2023-06-10T14:42:57;27.05;;;12.82;;
32242;SDS011;18731;42.830;24.390;2023-06-10T14:45:23;17.50;;;7.75;;
32242;SDS011;18731;42.830;24.390;2023-06-10T14:47:50;9.25;;;4.68;;
32242;SDS011;18731;42.830;24.390;2023-06-10T14:50:16;7.43;;;4.75;;
32242;SDS011;18731;42.830;24.390;2023-06-10T14:52:42;10.55;;;3.67;;
32242;SDS011;18731;42.830;24.390;2023-06-10T14:55:08;6.35;;;4.10;;
32242;SDS011;18731;42.830;24.390;2023-06-10T14:57:34;5.88;;;3.92;;
32242;SDS011;18731;42.830;24.390;2023-06-10T15:00:00;6.32;;;4.20;;
32242;SDS011;18731;42.830;24.390;2023-06-10T15:02:26;6.20;;;4.30;;
32242;SDS011;18731;42.830;24.390;2023-06-10T15:04:55;7.57;;;4.15;;
32242;SDS011;18731;42.830;24.390;2023-06-10T15:07:20;6.25;;;3.67;;
32242;SDS011;18731;42.830;24.390;2023-06-10T15:09:46;4.93;;;3.60;;
32242;SDS011;18731;42.830;24.390;2023-06-10T15:12:12;8.55;;;3.95;;
32242;SDS011;18731;42.830;24.390;2023-06-10T15:14:38;7.45;;;4.00;;
32242;SDS011;18731;42.830;24.390;2023-06-10T15:17:04;12.77;;;4.30;;
32242;SDS011;18731;42.830;24.390;2023-06-10T15:19:29;4.22;;;3.67;;
32242;SDS011;18731;42.830;24.390;2023-06-10T15:21:55;13.57;;;4.22;;
32242;SDS011;18731;42.830;24.390;2023-06-10T15:24:21;8.18;;;3.95;;
32242;SDS011;18731;42.830;24.390;2023-06-10T15:26:47;7.55;;;4.13;;
32242;SDS011;18731;42.830;24.390;2023-06-10T15:29:13;8.70;;;4.20;;
32242;SDS011;18731;42.830;24.390;2023-06-10T15:31:42;7.35;;;4.18;;
32242;SDS011;18731;42.830;24.390;2023-06-10T15:34:08;6.50;;;4.25;;
32242;SDS011;18731;42.830;24.390;2023-06-10T15:36:34;17.40;;;4.45;;
32242;SDS011;18731;42.830;24.390;2023-06-10T15:39:04;10.27;;;3.90;;
32242;SDS011;18731;42.830;24.390;2023-06-10T15:41:32;9.60;;;4.10;;
32242;SDS011;18731;42.830;24.390;2023-06-10T15:44:00;9.07;;;4.30;;
32242;SDS011;18731;42.830;24.390;2023-06-10T15:46:27;8.40;;;4.20;;
32242;SDS011;18731;42.830;24.390;2023-06-10T15:48:54;14.55;;;4.13;;
32242;SDS011;18731;42.830;24.390;2023-06-10T15:51:20;9.60;;;4.18;;
32242;SDS011;18731;42.830;24.390;2023-06-10T15:53:46;10.68;;;4.47;;
32242;SDS011;18731;42.830;24.390;2023-06-10T15:56:12;6.00;;;3.80;;
32242;SDS011;18731;42.830;24.390;2023-06-10T15:58:39;10.63;;;4.03;;
32242;SDS011;18731;42.830;24.390;2023-06-10T16:01:05;8.55;;;4.03;;
32242;SDS011;18731;42.830;24.390;2023-06-10T16:03:32;9.18;;;4.22;;
32242;SDS011;18731;42.830;24.390;2023-06-10T16:05:58;7.25;;;4.30;;
32242;SDS011;18731;42.830;24.390;2023-06-10T16:08:23;6.75;;;4.10;;
32242;SDS011;18731;42.830;24.390;2023-06-10T16:10:49;11.93;;;4.50;;
32242;SDS011;18731;42.830;24.390;2023-06-10T16:13:18;7.70;;;4.18;;
32242;SDS011;18731;42.830;24.390;2023-06-10T16:15:44;9.18;;;4.40;;
32242;SDS011;18731;42.830;24.390;2023-06-10T16:18:10;6.53;;;4.20;;
32242;SDS011;18731;42.830;24.390;2023-06-10T16:20:36;9.13;;;4.22;;
32242;SDS011;18731;42.830;24.390;2023-06-10T16:23:02;7.65;;;4.20;;
32242;SDS011;18731;42.830;24.390;2023-06-10T16:25:29;7.38;;;4.25;;
32242;SDS011;18731;42.830;24.390;2023-06-10T16:27:56;10.88;;;4.28;;
32242;SDS011;18731;42.830;24.390;2023-06-10T16:35:31;8.27;;;3.72;;
32242;SDS011;18731;42.830;24.390;2023-06-10T16:37:57;7.60;;;4.05;;
32242;SDS011;18731;42.830;24.390;2023-06-10T16:40:23;6.00;;;3.97;;
32242;SDS011;18731;42.830;24.390;2023-06-10T16:42:49;5.57;;;4.32;;
32242;SDS011;18731;42.830;24.390;2023-06-10T16:45:15;7.30;;;4.32;;
32242;SDS011;18731;42.830;24.390;2023-06-10T16:47:41;8.20;;;4.00;;
32242;SDS011;18731;42.830;24.390;2023-06-10T16:50:07;11.57;;;4.13;;
32242;SDS011;18731;42.830;24.390;2023-06-10T16:52:33;6.35;;;4.53;;
32242;SDS011;18731;42.830;24.390;2023-06-10T16:54:59;7.40;;;4.28;;
32242;SDS011;18731;42.830;24.390;2023-06-10T16:57:25;9.13;;;4.57;;
32242;SDS011;18731;42.830;24.390;2023-06-10T16:59:51;7.72;;;4.53;;
32242;SDS011;18731;42.830;24.390;2023-06-10T17:02:17;6.65;;;4.20;;
32242;SDS011;18731;42.830;24.390;2023-06-10T17:04:43;8.23;;;5.03;;
32242;SDS011;18731;42.830;24.390;2023-06-10T17:07:09;10.43;;;4.72;;
32242;SDS011;18731;42.830;24.390;2023-06-10T17:09:38;5.68;;;4.35;;
32242;SDS011;18731;42.830;24.390;2023-06-10T17:12:04;8.57;;;4.57;;
32242;SDS011;18731;42.830;24.390;2023-06-10T17:14:31;5.88;;;4.55;;
32242;SDS011;18731;42.830;24.390;2023-06-10T17:16:56;7.63;;;4.28;;
32242;SDS011;18731;42.830;24.390;2023-06-10T17:19:23;13.10;;;4.57;;
32242;SDS011;18731;42.830;24.390;2023-06-10T17:21:50;7.50;;;4.82;;
32242;SDS011;18731;42.830;24.390;2023-06-10T17:24:16;8.75;;;4.50;;
32242;SDS011;18731;42.830;24.390;2023-06-10T17:26:45;13.18;;;5.00;;
32242;SDS011;18731;42.830;24.390;2023-06-10T17:29:11;8.05;;;4.70;;
32242;SDS011;18731;42.830;24.390;2023-06-10T17:31:36;8.77;;;4.80;;
32242;SDS011;18731;42.830;24.390;2023-06-10T17:34:02;7.57;;;4.50;;
32242;SDS011;18731;42.830;24.390;2023-06-10T17:36:28;8.80;;;4.18;;
32242;SDS011;18731;42.830;24.390;2023-06-10T17:38:57;7.63;;;4.38;;
32242;SDS011;18731;42.830;24.390;2023-06-10T17:41:23;9.10;;;4.28;;
32242;SDS011;18731;42.830;24.390;2023-06-10T17:43:49;7.63;;;4.35;;
32242;SDS011;18731;42.830;24.390;2023-06-10T17:46:15;9.25;;;4.50;;
32242;SDS011;18731;42.830;24.390;2023-06-10T17:48:41;9.68;;;4.88;;
32242;SDS011;18731;42.830;24.390;2023-06-10T17:51:07;11.43;;;4.95;;
32242;SDS011;18731;42.830;24.390;2023-06-10T17:53:33;10.02;;;4.72;;
32242;SDS011;18731;42.830;24.390;2023-06-10T17:55:59;6.47;;;4.43;;
32242;SDS011;18731;42.830;24.390;2023-06-10T17:58:24;8.80;;;4.75;;
32242;SDS011;18731;42.830;24.390;2023-06-10T18:00:50;9.48;;;5.10;;
32242;SDS011;18731;42.830;24.390;2023-06-10T18:03:16;8.30;;;4.80;;
32242;SDS011;18731;42.830;24.390;2023-06-10T18:05:52;7.50;;;5.00;;
32242;SDS011;18731;42.830;24.390;2023-06-10T18:08:19;14.50;;;5.50;;
32242;SDS011;18731;42.830;24.390;2023-06-10T18:10:46;14.45;;;5.68;;
32242;SDS011;18731;42.830;24.390;2023-06-10T18:13:12;12.45;;;5.13;;
32242;SDS011;18731;42.830;24.390;2023-06-10T18:15:38;9.45;;;4.88;;
32242;SDS011;18731;42.830;24.390;2023-06-10T18:18:04;18.23;;;5.30;;
32242;SDS011;18731;42.830;24.390;2023-06-10T18:20:30;9.20;;;4.72;;
32242;SDS011;18731;42.830;24.390;2023-06-10T18:22:56;9.95;;;4.80;;
32242;SDS011;18731;42.830;24.390;2023-06-10T18:25:23;10.60;;;4.97;;
32242;SDS011;18731;42.830;24.390;2023-06-10T18:27:49;8.77;;;4.72;;
32242;SDS011;18731;42.830;24.390;2023-06-10T18:30:15;9.25;;;4.70;;
32242;SDS011;18731;42.830;24.390;2023-06-10T18:32:41;9.95;;;4.75;;
32242;SDS011;18731;42.830;24.390;2023-06-10T18:35:07;9.55;;;5.75;;
32242;SDS011;18731;42.830;24.390;2023-06-10T18:37:34;7.97;;;5.22;;
32242;SDS011;18731;42.830;24.390;2023-06-10T18:40:00;10.55;;;5.13;;
32242;SDS011;18731;42.830;24.390;2023-06-10T18:42:29;8.88;;;5.10;;
32242;SDS011;18731;42.830;24.390;2023-06-10T18:44:55;7.65;;;5.25;;
32242;SDS011;18731;42.830;24.390;2023-06-10T18:47:21;8.93;;;5.38;;
32242;SDS011;18731;42.830;24.390;2023-06-10T18:49:47;9.30;;;5.00;;
32242;SDS011;18731;42.830;24.390;2023-06-10T18:52:13;11.98;;;5.28;;
32242;SDS011;18731;42.830;24.390;2023-06-10T18:54:39;6.63;;;4.95;;
32242;SDS011;18731;42.830;24.390;2023-06-10T18:57:05;8.55;;;5.13;;
32242;SDS011;18731;42.830;24.390;2023-06-10T18:59:32;7.78;;;5.10;;
32242;SDS011;18731;42.830;24.390;2023-06-10T19:01:58;8.23;;;5.60;;
32242;SDS011;18731;42.830;24.390;2023-06-10T19:04:24;7.63;;;5.40;;
32242;SDS011;18731;42.830;24.390;2023-06-10T19:06:50;9.90;;;5.43;;
32242;SDS011;18731;42.830;24.390;2023-06-10T19:09:16;8.70;;;5.13;;
32242;SDS011;18731;42.830;24.390;2023-06-10T19:11:42;14.38;;;5.10;;
32242;SDS011;18731;42.830;24.390;2023-06-10T19:14:11;11.23;;;5.40;;
32242;SDS011;18731;42.830;24.390;2023-06-10T19:16:37;6.90;;;5.28;;
32242;SDS011;18731;42.830;24.390;2023-06-10T19:19:03;8.80;;;5.25;;
32242;SDS011;18731;42.830;24.390;2023-06-10T19:21:32;9.55;;;5.45;;
32242;SDS011;18731;42.830;24.390;2023-06-10T19:23:58;6.78;;;4.78;;
32242;SDS011;18731;42.830;24.390;2023-06-10T19:26:23;7.45;;;5.07;;
32242;SDS011;18731;42.830;24.390;2023-06-10T19:28:53;8.23;;;5.43;;
32242;SDS011;18731;42.830;24.390;2023-06-10T19:31:19;8.55;;;5.70;;
32242;SDS011;18731;42.830;24.390;2023-06-10T19:33:45;10.63;;;5.05;;
32242;SDS011;18731;42.830;24.390;2023-06-10T19:36:11;8.90;;;5.13;;
32242;SDS011;18731;42.830;24.390;2023-06-10T19:38:36;11.13;;;5.60;;
32242;SDS011;18731;42.830;24.390;2023-06-10T19:41:02;13.05;;;5.28;;
32242;SDS011;18731;42.830;24.390;2023-06-10T19:43:29;8.98;;;5.25;;
32242;SDS011;18731;42.830;24.390;2023-06-10T19:45:55;9.27;;;5.25;;
32242;SDS011;18731;42.830;24.390;2023-06-10T19:48:21;8.93;;;5.65;;
32242;SDS011;18731;42.830;24.390;2023-06-10T19:50:47;8.68;;;5.55;;
32242;SDS011;18731;42.830;24.390;2023-06-10T19:53:13;10.95;;;5.75;;